Time;durP1;ratioP1;P1;durP2;ratioP2;P2;SDS_P1;SDS_P2;PMS_P1;PMS_P2;Temp;Humidity;BMP_temperature;BMP_pressure;BME280_temperature;BME280_humidity;BME280_pressure;Samples;Min_cycle;Max_cycle;Signal;HPM_P1;HPM_P2
2022/08/02 17:58:09;;;;;;;0.57;0.53;;;;;;;28.09;100.00;100734.84;1902682;72;21163;-75
2022/08/02 18:00:39;;;;;;;2.20;0.50;;;;;;;28.05;100.00;100734.19;1905490;74;21018;-75
2022/08/02 18:03:06;;;;;;;4.80;0.50;;;;;;;28.07;100.00;100728.80;1894321;75;21125;-75
2022/08/02 18:05:35;;;;;;;0.88;0.50;;;;;;;28.10;100.00;100718.50;1902949;74;21076;-76
2022/08/02 18:08:04;;;;;;;0.50;0.40;;;;;;;27.97;100.00;100706.17;1892781;73;21119;-75
2022/08/02 18:10:32;;;;;;;0.78;0.55;;;;;;;28.01;100.00;100700.22;1900951;74;21062;-76
2022/08/02 18:12:59;;;;;;;1.10;0.70;;;;;;;27.90;100.00;100700.48;1886964;74;21607;-76
2022/08/02 18:15:27;;;;;;;0.57;0.40;;;;;;;28.03;100.00;100689.91;1882721;74;21517;-76
2022/08/02 18:17:54;;;;;;;1.17;0.55;;;;;;;27.86;100.00;100688.46;1884547;75;21067;-76
2022/08/02 18:20:23;;;;;;;1.98;0.82;;;;;;;27.92;100.00;100681.44;1892650;74;21509;-76
2022/08/02 18:22:51;;;;;;;1.47;0.98;;;;;;;27.81;100.00;100677.39;1899355;74;21108;-76
2022/08/02 18:25:18;;;;;;;0.70;0.40;;;;;;;28.11;100.00;100674.00;1904774;75;21064;-75
2022/08/02 18:27:46;;;;;;;4.45;1.60;;;;;;;28.21;100.00;100685.56;1886519;74;21147;-76
2022/08/02 18:30:14;;;;;;;2.55;1.20;;;;;;;28.04;100.00;100677.06;1907303;75;21233;-76
2022/08/02 18:32:42;;;;;;;2.02;1.17;;;;;;;28.03;100.00;100680.66;1910626;74;21092;-75
2022/08/02 18:35:09;;;;;;;2.75;1.60;;;;;;;27.99;100.00;100670.42;1857700;75;21084;-76
2022/08/02 18:37:39;;;;;;;2.45;0.88;;;;;;;27.77;100.00;100672.78;1892201;74;21157;-76
2022/08/02 18:40:08;;;;;;;5.22;1.87;;;;;;;27.86;100.00;100662.56;1910687;73;21054;-76
2022/08/02 18:42:37;;;;;;;4.47;1.22;;;;;;;27.65;100.00;100655.19;1904555;74;21178;-76
2022/08/02 18:45:06;;;;;;;1.85;1.00;;;;;;;27.94;100.00;100655.76;1898847;74;21041;-76
2022/08/02 18:47:33;;;;;;;1.42;0.70;;;;;;;28.01;100.00;100665.89;1911550;74;21078;-76
2022/08/02 18:50:01;;;;;;;0.88;0.55;;;;;;;27.95;100.00;100660.57;1885092;74;21460;-76
2022/08/02 18:52:28;;;;;;;3.35;1.05;;;;;;;27.76;100.00;100657.09;1891618;74;21068;-76
2022/08/02 18:54:57;;;;;;;0.90;0.50;;;;;;;27.68;100.00;100657.61;1895189;74;21134;-76
2022/08/02 18:57:27;;;;;;;2.80;0.82;;;;;;;27.65;100.00;100650.77;1899652;73;21054;-77
2022/08/02 18:59:54;;;;;;;1.85;0.72;;;;;;;27.67;100.00;100651.48;1906957;73;21122;-76
2022/08/02 19:02:23;;;;;;;2.10;0.95;;;;;;;27.68;100.00;100647.06;1909598;74;21743;-75
2022/08/02 19:04:53;;;;;;;3.75;1.80;;;;;;;27.47;100.00;100648.05;1904447;74;21056;-76
2022/08/02 19:07:22;;;;;;;3.45;0.82;;;;;;;27.18;100.00;100637.27;1908217;74;21118;-76
2022/08/02 19:09:48;;;;;;;1.72;1.22;;;;;;;27.30;100.00;100635.56;1912067;74;21044;-76
2022/08/02 19:12:16;;;;;;;4.67;2.33;;;;;;;27.15;100.00;100640.11;1909273;74;21057;-76
2022/08/02 19:14:43;;;;;;;3.40;2.12;;;;;;;27.22;100.00;100645.34;1908403;73;21042;-76
2022/08/02 19:17:11;;;;;;;2.83;1.90;;;;;;;27.26;100.00;100643.32;1897335;74;21085;-76
2022/08/02 19:19:41;;;;;;;1.77;1.10;;;;;;;27.22;100.00;100638.75;1907046;73;21086;-76
2022/08/02 19:22:07;;;;;;;0.85;0.57;;;;;;;27.18;100.00;100635.45;1892401;74;21072;-76
2022/08/02 19:24:36;;;;;;;0.30;0.30;;;;;;;27.04;100.00;100621.91;1900550;74;21044;-76
2022/08/02 19:27:04;;;;;;;1.22;0.60;;;;;;;26.99;100.00;100614.79;1917022;73;21574;-76
2022/08/02 19:29:40;;;;;;;2.77;0.50;;;;;;;26.79;100.00;100602.45;1906149;73;21234;-76
2022/08/02 19:32:02;;;;;;;1.87;0.60;;;;;;;26.60;100.00;100588.37;1886132;74;21150;-76
2022/08/02 19:34:29;;;;;;;0.42;0.40;;;;;;;26.38;100.00;100587.14;1910072;74;21014;-76
2022/08/02 19:36:57;;;;;;;1.30;0.50;;;;;;;26.09;100.00;100575.39;1899901;73;21072;-75
2022/08/02 19:39:24;;;;;;;3.37;0.55;;;;;;;25.98;100.00;100566.02;1913842;73;21506;-76
2022/08/02 19:41:52;;;;;;;1.25;0.60;;;;;;;25.84;100.00;100562.50;1902227;73;21069;-76
2022/08/02 19:44:20;;;;;;;0.60;0.37;;;;;;;25.70;100.00;100559.89;1909406;74;21488;-76
2022/08/02 19:46:55;;;;;;;0.68;0.28;;;;;;;25.54;100.00;100555.56;1915099;73;21962;-76
